Have a Safe July 4th! 

Flight Track Log - Related Links

Times and Time Zones

All times are in EDT time to prevent confusion due to time zone crossing. See the JBU51 flight status page for this flight to view local times or setup timezone preferences in your user account.

Time Position Orientation Groundspeed Altitude Reporting Facility
EDT Latitude Longitude Course Direction KTS MPH feet Rate Location/Type
Sat 11:11:52 AM 44.3197 -73.1336 196° South 247 284 6,800  Level Boston Center
Sat 11:12:00 AM 44.1444 -73.2709 195° South  Level FlightAware Approximate
Sat 11:12:52 AM 44.2528 -73.1675 200° South 272 313 10,000  Level Boston Center
Sat 11:13:00 AM 44.0634 -73.3011 194° South  Level FlightAware Approximate
Sat 11:13:52 AM 44.1692 -73.2014 196° South 304 350 12,000  Level Boston Center
Sat 11:14:00 AM 43.9818 -73.3283 194° South  Level FlightAware Approximate
Sat 11:14:52 AM 44.0772 -73.2433 198° South 341 392 14,800  Level Boston Center
Sat 11:15:00 AM 43.9004 -73.3565 196° South  Level FlightAware Approximate
Sat 11:15:52 AM 43.9789 -73.2856 197° South 362 417 17,500  Level Boston Center
Sat 11:16:00 AM 43.8198 -73.3889 196° South  Level FlightAware Approximate
Sat 11:16:52 AM 43.8786 -73.3300 198° South 375 432 19,400  Level Boston Center
Sat 11:17:00 AM 43.7392 -73.4212 196° South  Level FlightAware Approximate
Sat 11:17:52 AM 43.7761 -73.3747 197° South 387 445 21,500  Level Boston Center
Sat 11:18:52 AM 43.6675 -73.4158 195° South 398 458 23,700 2,150 Climbing Boston Center
Sat 11:19:52 AM 43.5586 -73.4628 197° South 404 465 25,800 1,800 Climbing Boston Center
Sat 11:20:52 AM 43.4500 -73.5097 197° South 404 465 27,300 1,100 Climbing Boston Center
Sat 11:21:52 AM 43.3347 -73.5561 196° South 409 471 28,000 350 Climbing Boston Center
Sat 11:22:52 AM 43.2178 -73.6053 197° South 430 495 28,000  Level Boston Center
Sat 11:23:52 AM 43.0878 -73.6625 198° South 448 516 28,000  Level Boston Center
Sat 11:24:52 AM 42.9706 -73.7114 197° South 448 516 28,000  Level Boston Center
Sat 11:25:52 AM 42.8658 -73.7572 198° South 448 516 28,000 -550 Level Boston Center
Sat 11:26:52 AM 42.7486 -73.8028 196° South 442 509 26,900 -1,100 Descending Boston Center
Sat 11:27:52 AM 42.6275 -73.8142 184° South 437 503 25,800 -1,100 Descending Boston Center
Sat 11:28:52 AM 42.5047 -73.8144 180° South 425 489 24,700 -900 Descending Boston Center
Sat 11:29:52 AM 42.3878 -73.8175 181° South 425 489 24,000 -350 Descending Boston Center
Sat 11:30:52 AM 42.2733 -73.8150 179° South 420 483 24,000  Level Boston Center
Sat 11:31:52 AM 42.1669 -73.8211 182° South 426 490 24,000  Level Boston Center
Sat 11:32:52 AM 42.0539 -73.8606 195° South 426 490 24,000  Level Boston Center
Sat 11:34:40 AM 41.8506 -73.9178 192° South 419 482 24,000  Level New York Center
Sat 11:35:40 AM 41.7392 -73.9542 194° South 413 475 24,000  Level New York Center
Sat 11:36:41 AM 41.6281 -73.9875 193° South 413 475 24,000 -984 Level New York Center
Sat 11:37:42 AM 41.5039 -74.0286 194° South 413 475 22,000 -1,966 Descending New York Center
Sat 11:38:40 AM 41.3972 -74.0539 190° South 408 470 20,100 -1,017 Descending New York Center
Sat 11:39:40 AM 41.2883 -74.0706 187° South 403 464 20,000 -50 Descending New York Center
Sat 11:40:40 AM 41.1817 -74.0903 188° South 398 458 20,000  Level New York Center
Sat 11:41:15 AM 41.1167 -74.1000 186° South 387 445 20,000  Level New York TRACON
Sat 11:42:10 AM 41.0167 -74.1167 187° South 388 447 20,000 -730 Level New York TRACON
Sat 11:43:10 AM 40.9167 -74.0667 159° South 380 437 18,600 -1,000 Descending New York TRACON
Sat 11:44:10 AM 40.8500 -73.9833 137° Southeast 340 391 18,000 -1,296 Descending New York TRACON
Sat 11:45:15 AM 40.7833 -73.8667 127° Southeast 340 391 15,900 -1,776 Descending New York TRACON
Sat 11:46:15 AM 40.7500 -73.7500 111° Southeast 340 391 14,300 -1,100 Descending New York TRACON
Sat 11:47:15 AM 40.7333 -73.6500 102° East 339 390 13,700 -1,300 Descending New York TRACON
Sat 11:48:15 AM 40.7333 -73.5333 90° East 304 350 11,700 -1,983 Descending New York TRACON
Sat 11:49:16 AM 40.7333 -73.4333 90° East 297 342 9,700 -1,983 Descending New York TRACON
Sat 11:50:10 AM 40.7333 -73.3333 90° East 291 335 7,900 -2,000 Descending New York TRACON
Sat 11:51:10 AM 40.6667 -73.3333 180° South 287 330 5,900 -1,950 Descending New York TRACON
Sat 11:52:10 AM 40.6000 -73.4000 217° Southwest 274 315 4,000 -1,450 Descending New York TRACON
Sat 11:53:10 AM 40.5500 -73.4667 225° Southwest 266 306 3,000 -1,000 Descending New York TRACON
Sat 11:54:10 AM 40.5500 -73.5667 270° West 253 291 2,000 -476 Descending New York TRACON
Sat 11:55:16 AM 40.5833 -73.6333 303° West 197 227 2,000 -240 Level New York TRACON
Sat 11:56:15 AM 40.6167 -73.6833 311° West 145 167 1,500 -579 Descending New York TRACON
Sat 11:57:10 AM 40.6333 -73.7167 303° West 140 161 900 -655 Descending New York TRACON

Login

Don't have an account? Register now (free) for customized features, flight alerts, and more!